Davison, MI

05:00 PM EST 2018 urtarrila ren 22 an (GMT -0500)
Solar Sub. | | Change Station

Elev 804 ft 42.99 °N, 83.55 °W | Updated 32 seconds ago

Estalia
Estalia
49.8 °F
Feels Like 50 °F
N
0.0
Haizea Aldagarria Haizea from Hegoalde

Gaur
High -- | Low -- °F
--% Chance of Precip.
Yesterday
High -- | Low -- °F
Precip. -- in
Presioa 29.62 in
Ikusgaitasuna 10.0 Miliak
Clouds Estalia 2200 ft
Izozki haizeak 50 °F
Ihintzaren maila 48 °F
Afoinua 95%
Rainfall 0.64 in
Snow Depth Not available.
7:58 AM 5:33 PM
Waxing Crescent, 29% visible
METAR KFNT 222153Z 18011KT 10SM OVC022 10/08 A2960 RMK AO2 SLP028 T01000078
Presioa 29.62 in
Ikusgaitasuna 10.0 Miliak
Clouds Estalia 2200 ft
Izozki haizeak 50 °F
Ihintzaren maila 48 °F
Afoinua 95%
Rainfall 0.64 in
Snow Depth Not available.
7:58 AM 5:33 PM
Waxing Crescent, 29% visible
METAR KFNT 222153Z 18011KT 10SM OVC022 10/08 A2960 RMK AO2 SLP028 T01000078

Get Severe Weather Alerts

Thanks for signing up!

Be on the lookout for a verification email in your inbox.

You'll start receiving the daily forecast at 6 AM.

×

10-Day Weather Forecast

Almanac

Astronomy

Jan. 22, 2018 Rise Set
Actual Time
Civil Twilight
Nautical Twilight
Astronomical Twilight
Moon
Length Of Visible Light
Length of Day
Tomorrow will be .
, % of the Moon is Illuminated

Today's Extremes

State Highs State Lows

Community

WunderPhotos

Category 6

Welcome to Category 6. This is the collective home for Weather Underground's featured writeups by Dr. Jeff Masters (right), Bob Henson (left), Chris Burt, and other regular contributors.

Nearby

Air Quality

  Air Quality AQ Index Pollutant
Not available.

Snow Depth

Station Depth Elevation

Earthquake Activity

City Distance Mag. Time & Date
Minimum magnitude displayed is 2.5.

Coastal Water Temperatures

Lekua Tenperatura

Stations

Nearby Weather Stations

Station Location Temp Izozki haizeak Ihintzaren maila Afoinua Haizea Precip. Elev Eguneratuta Type
                   

Watches & Warnings

There are currently no watches in effect.